Time;durP1;ratioP1;P1;durP2;ratioP2;P2;SDS_P1;SDS_P2;PMS_P1;PMS_P2;Temp;Humidity;BMP_temperature;BMP_pressure;BME280_temperature;BME280_humidity;BME280_pressure;Samples;Min_cycle;Max_cycle;Signal;HPM_P1;HPM_P2
2023/10/17 00:00:25;;;;;;;14.52;8.05;;;;;;;;;;5101603;28;20082;-53
2023/10/17 00:02:51;;;;;;;12.52;7.97;;;;;;;;;;5097786;28;20543;-51
2023/10/17 00:05:20;;;;;;;14.07;9.30;;;;;;;;;;5109748;28;20044;-51
2023/10/17 00:07:48;;;;;;;13.52;8.07;;;;;;;;;;5091650;28;20070;-53
2023/10/17 00:10:18;;;;;;;13.70;8.30;;;;;;;;;;5091223;28;20046;-54
2023/10/17 00:12:50;;;;;;;13.25;7.72;;;;;;;;;;5102279;28;20100;-54
2023/10/17 00:15:27;;;;;;;15.10;8.70;;;;;;;;;;5092979;28;20048;-51
2023/10/17 00:18:00;;;;;;;12.82;7.57;;;;;;;;;;5106929;28;20048;-52
2023/10/17 00:20:32;;;;;;;14.75;9.15;;;;;;;;;;5109116;28;20431;-56
2023/10/17 00:23:00;;;;;;;13.55;8.43;;;;;;;;;;5110940;28;20070;-54
2023/10/17 00:25:27;;;;;;;12.82;8.02;;;;;;;;;;5111584;28;20036;-54
2023/10/17 00:27:54;;;;;;;15.15;8.35;;;;;;;;;;5111447;28;20051;-54
2023/10/17 00:30:21;;;;;;;15.18;8.77;;;;;;;;;;5103081;28;20142;-57
2023/10/17 00:32:51;;;;;;;13.80;8.27;;;;;;;;;;5111218;28;20089;-56
2023/10/17 00:35:19;;;;;;;12.60;8.18;;;;;;;;;;5102622;28;20044;-57
2023/10/17 00:37:52;;;;;;;13.48;7.97;;;;;;;;;;5111665;28;20446;-59
2023/10/17 00:40:44;;;;;;;13.27;7.78;;;;;;;;;;5111967;28;20074;-58
2023/10/17 00:43:11;;;;;;;14.00;8.55;;;;;;;;;;5115273;28;20047;-58
2023/10/17 00:45:38;;;;;;;13.23;8.25;;;;;;;;;;5114910;28;20051;-56
2023/10/17 00:48:08;;;;;;;13.52;7.53;;;;;;;;;;5114635;28;20052;-56
2023/10/17 00:50:36;;;;;;;14.02;8.40;;;;;;;;;;5107149;28;20055;-57
2023/10/17 00:53:05;;;;;;;13.00;7.93;;;;;;;;;;5106556;28;20044;-57
2023/10/17 00:55:35;;;;;;;13.93;7.88;;;;;;;;;;5102981;28;20048;-58
2023/10/17 00:58:02;;;;;;;14.23;8.02;;;;;;;;;;5102703;28;20134;-57
2023/10/17 01:00:36;;;;;;;12.48;8.18;;;;;;;;;;5114536;28;20126;-55
2023/10/17 01:03:08;;;;;;;15.32;8.90;;;;;;;;;;5114436;28;20047;-57
2023/10/17 01:05:42;;;;;;;13.70;7.97;;;;;;;;;;5106854;28;20056;-53
2023/10/17 01:08:09;;;;;;;13.48;8.40;;;;;;;;;;5105498;28;20055;-55
2023/10/17 01:10:37;;;;;;;15.40;8.95;;;;;;;;;;5098341;28;20135;-58
2023/10/17 01:13:05;;;;;;;13.88;7.95;;;;;;;;;;5105638;28;20551;-57
2023/10/17 01:15:33;;;;;;;14.10;8.38;;;;;;;;;;5106106;28;20047;-53
2023/10/17 01:18:04;;;;;;;13.70;7.63;;;;;;;;;;5106942;28;20514;-56
2023/10/17 01:20:30;;;;;;;15.68;8.25;;;;;;;;;;5106013;28;20047;-57
2023/10/17 01:23:00;;;;;;;12.25;8.20;;;;;;;;;;5105854;28;20413;-57
2023/10/17 01:25:29;;;;;;;13.05;7.63;;;;;;;;;;5114434;28;20566;-57
2023/10/17 01:27:58;;;;;;;13.43;8.25;;;;;;;;;;5114367;28;20411;-55
2023/10/17 01:30:29;;;;;;;16.15;9.13;;;;;;;;;;5113986;28;20047;-52
2023/10/17 01:32:56;;;;;;;13.52;7.68;;;;;;;;;;5113554;28;20058;-54
2023/10/17 01:35:23;;;;;;;15.32;9.52;;;;;;;;;;5113856;28;20521;-52
2023/10/17 01:37:52;;;;;;;15.27;8.82;;;;;;;;;;5113727;28;20557;-58
2023/10/17 01:40:24;;;;;;;14.32;8.30;;;;;;;;;;5114395;28;20039;-57
2023/10/17 01:42:52;;;;;;;16.02;9.23;;;;;;;;;;5113443;28;20157;-53
2023/10/17 01:45:22;;;;;;;15.80;8.55;;;;;;;;;;5112066;28;20122;-55
2023/10/17 01:47:50;;;;;;;14.95;8.55;;;;;;;;;;5101803;28;20049;-53
2023/10/17 01:50:18;;;;;;;14.23;8.70;;;;;;;;;;5101489;28;20051;-58
2023/10/17 01:52:46;;;;;;;16.25;9.30;;;;;;;;;;5112018;28;20388;-57
2023/10/17 01:55:14;;;;;;;15.73;9.30;;;;;;;;;;5113889;28;20560;-58
2023/10/17 01:57:43;;;;;;;15.95;9.40;;;;;;;;;;5108921;28;20039;-58
2023/10/17 02:00:23;;;;;;;14.13;8.60;;;;;;;;;;5102256;28;20418;-57
2023/10/17 02:02:50;;;;;;;17.00;9.20;;;;;;;;;;5113367;28;20059;-56
2023/10/17 02:05:17;;;;;;;14.65;8.80;;;;;;;;;;5105315;28;20052;-57
2023/10/17 02:07:43;;;;;;;14.23;8.63;;;;;;;;;;5113514;28;20039;-57
2023/10/17 02:10:11;;;;;;;15.75;8.60;;;;;;;;;;5104970;28;20092;-57
2023/10/17 02:12:41;;;;;;;15.93;9.10;;;;;;;;;;5104816;28;20043;-58
2023/10/17 02:15:08;;;;;;;14.03;7.93;;;;;;;;;;5113185;28;20046;-59
2023/10/17 02:17:36;;;;;;;15.48;9.18;;;;;;;;;;5105245;28;20165;-55
2023/10/17 02:20:09;;;;;;;15.57;9.57;;;;;;;;;;5096864;28;20070;-57
2023/10/17 02:22:44;;;;;;;14.20;8.52;;;;;;;;;;5105587;28;20051;-58
2023/10/17 02:25:14;;;;;;;16.77;8.50;;;;;;;;;;5096494;28;20493;-57
2023/10/17 02:27:43;;;;;;;15.75;9.15;;;;;;;;;;5104754;28;20475;-58
2023/10/17 02:30:13;;;;;;;14.02;8.50;;;;;;;;;;5096130;28;20127;-59
2023/10/17 02:32:44;;;;;;;14.18;9.15;;;;;;;;;;5104230;28;20074;-56
2023/10/17 02:35:14;;;;;;;16.75;9.77;;;;;;;;;;5104430;28;20040;-56
2023/10/17 02:37:43;;;;;;;14.82;8.43;;;;;;;;;;5113057;28;20159;-58
2023/10/17 02:40:20;;;;;;;16.55;10.00;;;;;;;;;;5112840;28;20050;-54
2023/10/17 02:42:48;;;;;;;17.45;9.38;;;;;;;;;;5112897;28;20502;-53
2023/10/17 02:45:24;;;;;;;14.93;8.85;;;;;;;;;;5103365;28;20047;-56
2023/10/17 02:47:53;;;;;;;17.33;10.18;;;;;;;;;;5092383;28;20059;-56
2023/10/17 02:50:41;;;;;;;18.63;10.05;;;;;;;;;;5111170;28;20059;-53
2023/10/17 02:53:11;;;;;;;16.48;9.35;;;;;;;;;;5103622;28;20048;-55
2023/10/17 02:55:38;;;;;;;15.95;9.63;;;;;;;;;;5107698;28;20036;-54
2023/10/17 02:58:05;;;;;;;18.58;9.85;;;;;;;;;;5113011;28;20048;-58
2023/10/17 03:00:34;;;;;;;18.17;10.75;;;;;;;;;;5108523;28;20123;-58
2023/10/17 03:03:12;;;;;;;17.85;10.25;;;;;;;;;;5107886;28;20058;-52
2023/10/17 03:05:40;;;;;;;20.20;11.45;;;;;;;;;;5100722;28;20131;-55
2023/10/17 03:08:10;;;;;;;17.00;10.40;;;;;;;;;;5100752;28;20051;-55
2023/10/17 03:10:39;;;;;;;18.90;9.75;;;;;;;;;;5103833;28;20051;-58
2023/10/17 03:13:14;;;;;;;16.83;10.00;;;;;;;;;;5103924;28;20044;-58
2023/10/17 03:15:46;;;;;;;17.55;9.77;;;;;;;;;;5100446;28;20326;-57
2023/10/17 03:18:15;;;;;;;15.75;9.18;;;;;;;;;;5100900;28;20758;-56
2023/10/17 03:20:42;;;;;;;15.18;9.27;;;;;;;;;;5098811;28;20052;-57
2023/10/17 03:23:10;;;;;;;16.92;9.73;;;;;;;;;;5105805;28;20134;-53
2023/10/17 03:25:38;;;;;;;17.73;9.60;;;;;;;;;;5110410;28;20093;-54
2023/10/17 03:28:08;;;;;;;13.80;9.35;;;;;;;;;;5106122;28;20097;-53
2023/10/17 03:30:34;;;;;;;15.18;9.10;;;;;;;;;;5111643;28;20077;-54
2023/10/17 03:33:08;;;;;;;17.15;10.23;;;;;;;;;;5112087;28;20048;-52
2023/10/17 03:35:36;;;;;;;15.02;9.60;;;;;;;;;;5109295;28;20388;-49
2023/10/17 03:38:04;;;;;;;16.70;9.60;;;;;;;;;;5103847;28;20097;-50
2023/10/17 03:40:36;;;;;;;15.90;9.35;;;;;;;;;;5106777;28;20097;-50
2023/10/17 03:43:11;;;;;;;16.83;10.23;;;;;;;;;;5103734;28;20040;-55
2023/10/17 03:45:44;;;;;;;15.75;9.57;;;;;;;;;;5104302;28;20043;-53
2023/10/17 03:48:14;;;;;;;16.30;10.52;;;;;;;;;;5111013;28;20054;-53
2023/10/17 03:50:49;;;;;;;16.38;9.55;;;;;;;;;;5096295;28;20048;-53
2023/10/17 03:53:25;;;;;;;17.25;10.07;;;;;;;;;;5111418;28;20119;-53
2023/10/17 03:55:52;;;;;;;15.38;10.40;;;;;;;;;;5111951;28;20044;-55
2023/10/17 03:58:28;;;;;;;14.63;10.13;;;;;;;;;;5111440;28;20043;-53
2023/10/17 04:00:57;;;;;;;17.05;10.05;;;;;;;;;;5111528;28;20055;-55
2023/10/17 04:03:25;;;;;;;16.88;10.30;;;;;;;;;;5111412;28;20078;-53
2023/10/17 04:06:01;;;;;;;17.80;10.95;;;;;;;;;;5111605;28;20051;-53
2023/10/17 04:08:31;;;;;;;16.58;9.82;;;;;;;;;;5108505;28;20514;-53
2023/10/17 04:11:08;;;;;;;17.63;9.43;;;;;;;;;;5106558;28;20263;-58
2023/10/17 04:13:35;;;;;;;18.83;10.68;;;;;;;;;;5107838;28;20078;-57
2023/10/17 04:16:09;;;;;;;19.70;10.18;;;;;;;;;;5107325;28;20052;-58
2023/10/17 04:18:37;;;;;;;19.83;10.68;;;;;;;;;;5113521;28;20039;-55
2023/10/17 04:21:17;;;;;;;17.17;10.35;;;;;;;;;;5115435;28;20047;-53
2023/10/17 04:23:45;;;;;;;20.60;11.50;;;;;;;;;;5108607;28;20454;-50
2023/10/17 04:26:17;;;;;;;17.98;10.38;;;;;;;;;;5106219;28;20044;-50
2023/10/17 04:28:49;;;;;;;18.08;10.55;;;;;;;;;;5095086;28;20165;-52
2023/10/17 04:31:21;;;;;;;18.92;11.75;;;;;;;;;;5094681;28;20131;-50
2023/10/17 04:33:49;;;;;;;18.98;9.93;;;;;;;;;;5094522;28;20055;-54
2023/10/17 04:36:18;;;;;;;21.70;12.13;;;;;;;;;;5104669;28;20067;-50
2023/10/17 04:38:46;;;;;;;18.40;11.40;;;;;;;;;;5115349;28;20055;-53
2023/10/17 04:41:25;;;;;;;17.88;11.25;;;;;;;;;;5115288;28;20044;-49
2023/10/17 04:43:54;;;;;;;17.67;10.55;;;;;;;;;;5107192;28;20127;-48
2023/10/17 04:46:26;;;;;;;19.35;11.38;;;;;;;;;;5104378;28;20130;-53
2023/10/17 04:48:52;;;;;;;19.75;10.80;;;;;;;;;;5100958;28;20039;-48
2023/10/17 04:51:31;;;;;;;19.15;10.85;;;;;;;;;;5113030;28;20048;-50
2023/10/17 04:54:05;;;;;;;20.75;11.27;;;;;;;;;;5094333;28;20127;-51
2023/10/17 04:56:52;;;;;;;18.40;10.30;;;;;;;;;;5114692;28;20043;-54
2023/10/17 04:59:41;;;;;;;17.15;10.57;;;;;;;;;;5111149;28;20452;-49
2023/10/17 05:02:28;;;;;;;17.77;11.38;;;;;;;;;;5108374;28;20039;-52
2023/10/17 05:08:04;;;;;;;16.83;10.48;;;;;;;;;;5114741;28;20055;-49
2023/10/17 06:16:52;;;;;;;29.52;14.45;;;;;;;;;;5101467;28;20054;-49
2023/10/17 06:19:24;;;;;;;29.08;15.13;;;;;;;;;;5111610;28;20105;-50
2023/10/17 06:24:46;;;;;;;24.98;13.50;;;;;;;;;;5113370;28;20058;-54
2023/10/17 06:27:43;;;;;;;24.30;14.15;;;;;;;;;;5103930;28;20044;-53
2023/10/17 06:30:27;;;;;;;25.42;14.30;;;;;;;;;;5092409;28;20052;-49
2023/10/17 06:35:44;;;;;;;23.48;13.43;;;;;;;;;;5081856;28;20051;-49
2023/10/17 06:38:10;;;;;;;27.38;15.02;;;;;;;;;;5105578;28;20035;-51
2023/10/17 06:40:45;;;;;;;27.50;14.60;;;;;;;;;;5110534;28;20105;-50
2023/10/17 06:43:13;;;;;;;24.67;14.00;;;;;;;;;;5112741;28;20047;-54
2023/10/17 06:45:54;;;;;;;28.63;15.07;;;;;;;;;;5113180;28;20039;-49
2023/10/17 06:48:31;;;;;;;;;;;;;;;;;;5113575;28;20043;-54
2023/10/17 06:53:46;;;;;;;27.52;14.02;;;;;;;;;;5106179;28;20049;-48
2023/10/17 06:56:13;;;;;;;26.30;14.13;;;;;;;;;;5108890;28;20146;-52
2023/10/17 06:58:40;;;;;;;27.35;14.60;;;;;;;;;;5092270;28;20048;-48
2023/10/17 07:01:19;;;;;;;25.23;13.75;;;;;;;;;;5092187;28;20071;-56
2023/10/17 07:03:46;;;;;;;25.83;15.32;;;;;;;;;;5105971;28;20051;-49
2023/10/17 07:06:13;;;;;;;26.35;14.82;;;;;;;;;;5112765;28;20367;-52
2023/10/17 07:08:41;;;;;;;25.73;13.77;;;;;;;;;;5112712;28;20063;-49
2023/10/17 07:11:24;;;;;;;27.60;14.70;;;;;;;;;;5112542;28;20059;-51
2023/10/17 07:13:54;;;;;;;22.67;12.25;;;;;;;;;;5104580;28;20052;-49
2023/10/17 07:16:32;;;;;;;24.38;12.32;;;;;;;;;;5108391;28;20479;-49
2023/10/17 07:19:09;;;;;;;21.65;11.77;;;;;;;;;;5110221;28;20577;-49
2023/10/17 07:21:55;;;;;;;19.52;11.27;;;;;;;;;;5108840;28;20040;-53
2023/10/17 07:24:23;;;;;;;18.50;10.88;;;;;;;;;;5106802;28;20436;-49
2023/10/17 07:26:52;;;;;;;18.70;11.35;;;;;;;;;;5108931;28;20071;-49
2023/10/17 07:29:21;;;;;;;18.77;11.30;;;;;;;;;;5111704;28;20047;-55
2023/10/17 07:31:52;;;;;;;19.00;11.15;;;;;;;;;;5111778;28;20067;-49
2023/10/17 07:34:21;;;;;;;19.15;11.63;;;;;;;;;;5109112;28;20514;-54
2023/10/17 07:36:50;;;;;;;20.65;11.75;;;;;;;;;;5108550;28;20044;-50
2023/10/17 07:39:24;;;;;;;21.13;12.20;;;;;;;;;;5111711;28;20081;-55
2023/10/17 07:41:54;;;;;;;22.98;12.40;;;;;;;;;;5111910;28;20049;-51
2023/10/17 07:44:21;;;;;;;23.00;12.57;;;;;;;;;;5111769;28;20071;-51
2023/10/17 07:47:08;;;;;;;20.50;11.73;;;;;;;;;;5111376;28;20072;-53
2023/10/17 07:49:36;;;;;;;21.50;11.18;;;;;;;;;;5100544;28;20048;-54
2023/10/17 07:52:10;;;;;;;19.13;11.10;;;;;;;;;;5106436;28;20047;-48
2023/10/17 07:54:40;;;;;;;20.35;12.02;;;;;;;;;;5097064;28;20503;-50
2023/10/17 07:57:07;;;;;;;23.00;12.88;;;;;;;;;;5102748;28;20040;-48
2023/10/17 07:59:34;;;;;;;19.85;11.95;;;;;;;;;;5106462;28;20463;-48
2023/10/17 08:02:18;;;;;;;19.15;11.80;;;;;;;;;;5104110;28;20046;-53
2023/10/17 08:04:45;;;;;;;19.17;12.27;;;;;;;;;;5105565;28;20495;-58
2023/10/17 08:07:13;;;;;;;20.80;12.13;;;;;;;;;;5103374;28;20123;-48
2023/10/17 08:09:50;;;;;;;21.83;11.98;;;;;;;;;;5103514;28;20047;-49
2023/10/17 08:12:21;;;;;;;21.10;13.18;;;;;;;;;;5106025;28;20036;-48
2023/10/17 08:14:57;;;;;;;25.70;13.18;;;;;;;;;;5106270;28;20541;-48
2023/10/17 08:17:28;;;;;;;23.27;13.02;;;;;;;;;;5107310;28;20406;-48
2023/10/17 08:20:38;;;;;;;24.90;12.93;;;;;;;;;;5106241;28;20054;-49
2023/10/17 08:22:58;;;;;;;22.08;12.13;;;;;;;;;;5105020;28;20094;-47
2023/10/17 08:25:30;;;;;;;21.33;11.43;;;;;;;;;;5105438;28;20051;-47
2023/10/17 08:27:57;;;;;;;19.85;13.32;;;;;;;;;;5108090;28;20081;-49
2023/10/17 08:30:23;;;;;;;20.50;12.27;;;;;;;;;;5107851;28;20487;-48
2023/10/17 08:33:09;;;;;;;19.67;12.38;;;;;;;;;;5107098;28;20051;-50
2023/10/17 08:35:37;;;;;;;20.10;11.60;;;;;;;;;;5099816;28;20542;-49
2023/10/17 08:38:06;;;;;;;21.60;12.18;;;;;;;;;;5107752;28;20044;-47
2023/10/17 08:40:32;;;;;;;19.67;11.50;;;;;;;;;;5107933;28;20126;-48
2023/10/17 08:43:02;;;;;;;22.20;12.70;;;;;;;;;;5099898;28;20047;-49
2023/10/17 08:45:37;;;;;;;22.05;11.88;;;;;;;;;;5105923;28;20043;-49
2023/10/17 08:48:08;;;;;;;19.45;11.68;;;;;;;;;;5100773;28;20093;-51
2023/10/17 08:50:37;;;;;;;19.88;12.10;;;;;;;;;;5101471;28;20044;-50
2023/10/17 08:53:07;;;;;;;22.92;12.00;;;;;;;;;;5102849;28;20279;-48
2023/10/17 08:55:33;;;;;;;20.45;11.32;;;;;;;;;;5107321;28;20051;-49
2023/10/17 08:58:00;;;;;;;20.33;11.20;;;;;;;;;;5106208;28;20069;-50
2023/10/17 09:00:49;;;;;;;17.70;10.95;;;;;;;;;;5108630;28;20043;-49
2023/10/17 09:03:28;;;;;;;20.17;11.43;;;;;;;;;;5104343;28;20050;-49
2023/10/17 09:06:06;;;;;;;20.02;11.30;;;;;;;;;;5109193;28;20426;-50
2023/10/17 09:08:49;;;;;;;18.20;11.80;;;;;;;;;;5108641;28;20047;-49
2023/10/17 09:11:25;;;;;;;17.48;10.70;;;;;;;;;;5104432;28;20100;-50
2023/10/17 09:16:38;;;;;;;22.20;12.20;;;;;;;;;;5108055;28;20044;-53
2023/10/17 09:19:10;;;;;;;18.75;10.88;;;;;;;;;;5108468;28;20089;-49
2023/10/17 09:21:41;;;;;;;21.15;12.10;;;;;;;;;;5107838;28;20051;-49
2023/10/17 09:24:29;;;;;;;22.95;12.90;;;;;;;;;;5108990;28;20043;-52
2023/10/17 09:26:56;;;;;;;22.50;13.45;;;;;;;;;;5109090;28;20051;-48
2023/10/17 09:29:27;;;;;;;22.95;12.38;;;;;;;;;;5107950;28;20444;-49
2023/10/17 09:31:54;;;;;;;21.35;12.65;;;;;;;;;;5108929;28;20040;-48
2023/10/17 09:34:26;;;;;;;25.48;13.93;;;;;;;;;;5110610;28;20131;-50
2023/10/17 09:36:58;;;;;;;24.95;15.43;;;;;;;;;;5110302;28;20054;-49
2023/10/17 09:39:29;;;;;;;26.75;15.38;;;;;;;;;;5110881;28;20040;-50
2023/10/17 09:41:56;;;;;;;24.77;14.57;;;;;;;;;;5108156;28;20062;-49
2023/10/17 09:44:23;;;;;;;23.95;14.00;;;;;;;;;;5110417;28;20040;-49
2023/10/17 09:46:54;;;;;;;27.30;15.50;;;;;;;;;;5110827;28;20044;-52
2023/10/17 09:49:26;;;;;;;26.83;16.48;;;;;;;;;;5109645;28;20122;-48
2023/10/17 09:51:55;;;;;;;24.17;15.05;;;;;;;;;;5108966;28;20044;-47
2023/10/17 09:54:23;;;;;;;22.77;13.75;;;;;;;;;;5110103;28;20437;-48
2023/10/17 09:56:50;;;;;;;22.27;13.32;;;;;;;;;;5110441;28;20130;-49
2023/10/17 09:59:24;;;;;;;22.83;13.52;;;;;;;;;;5110520;28;20130;-51
2023/10/17 10:01:51;;;;;;;25.38;14.38;;;;;;;;;;5109770;28;20039;-48
2023/10/17 10:04:19;;;;;;;24.92;14.13;;;;;;;;;;5110072;28;20587;-48
2023/10/17 10:06:47;;;;;;;25.30;16.05;;;;;;;;;;5108263;28;20522;-54
2023/10/17 10:09:26;;;;;;;25.73;15.05;;;;;;;;;;5109982;28;20563;-53
2023/10/17 10:11:58;;;;;;;25.42;15.07;;;;;;;;;;5109578;28;20088;-49
2023/10/17 10:14:44;;;;;;;29.13;15.68;;;;;;;;;;5109716;28;20044;-49
2023/10/17 10:17:14;;;;;;;25.90;14.65;;;;;;;;;;5108802;28;20052;-48
2023/10/17 10:19:59;;;;;;;24.55;13.95;;;;;;;;;;5107486;28;20094;-49
2023/10/17 10:22:52;;;;;;;23.38;14.07;;;;;;;;;;5106974;28;20131;-48
2023/10/17 10:25:20;;;;;;;22.38;13.63;;;;;;;;;;5105049;28;20426;-49
2023/10/17 10:27:49;;;;;;;22.73;14.23;;;;;;;;;;5109425;28;20747;-48
2023/10/17 10:30:35;;;;;;;27.52;14.50;;;;;;;;;;5105306;28;20043;-51
2023/10/17 10:33:01;;;;;;;24.92;14.15;;;;;;;;;;5106559;28;20100;-49
2023/10/17 10:35:32;;;;;;;23.15;13.95;;;;;;;;;;5107108;28;20055;-49
2023/10/17 10:38:00;;;;;;;25.20;14.27;;;;;;;;;;5106417;28;20074;-50
2023/10/17 10:40:30;;;;;;;21.85;13.85;;;;;;;;;;5109012;28;20406;-48
2023/10/17 10:42:59;;;;;;;23.60;13.93;;;;;;;;;;5106579;28;20176;-50
2023/10/17 10:45:36;;;;;;;20.13;12.55;;;;;;;;;;5106369;28;20040;-49
2023/10/17 10:48:07;;;;;;;20.40;12.80;;;;;;;;;;5105032;28;20505;-53
2023/10/17 10:50:35;;;;;;;21.65;11.98;;;;;;;;;;5108187;28;20109;-51
2023/10/17 10:53:18;;;;;;;22.50;13.77;;;;;;;;;;5108709;28;20071;-51
2023/10/17 10:55:52;;;;;;;22.52;13.43;;;;;;;;;;5107302;28;20047;-48
2023/10/17 10:58:19;;;;;;;19.73;12.88;;;;;;;;;;5106751;28;20043;-48
2023/10/17 11:00:46;;;;;;;23.90;13.50;;;;;;;;;;5106469;28;20066;-52
2023/10/17 11:03:12;;;;;;;20.00;12.23;;;;;;;;;;5107518;28;20363;-49
2023/10/17 11:05:52;;;;;;;18.02;12.15;;;;;;;;;;5104927;28;20039;-49
2023/10/17 11:08:20;;;;;;;18.85;11.65;;;;;;;;;;5102913;28;20040;-50
2023/10/17 11:10:47;;;;;;;18.70;12.25;;;;;;;;;;5106916;28;20130;-52
2023/10/17 11:13:15;;;;;;;18.30;11.50;;;;;;;;;;5105747;28;20040;-51
2023/10/17 11:15:43;;;;;;;19.50;11.88;;;;;;;;;;5108556;28;20048;-50
2023/10/17 11:18:11;;;;;;;24.40;14.35;;;;;;;;;;5103251;28;20047;-50
2023/10/17 11:20:40;;;;;;;22.27;13.82;;;;;;;;;;5101539;28;20039;-50
2023/10/17 11:23:11;;;;;;;21.35;12.98;;;;;;;;;;5103468;28;20044;-50
2023/10/17 11:25:44;;;;;;;22.52;13.98;;;;;;;;;;5105568;28;20059;-53
2023/10/17 11:28:11;;;;;;;22.85;12.98;;;;;;;;;;5103351;28;20071;-52
2023/10/17 11:30:41;;;;;;;18.75;11.68;;;;;;;;;;5104348;28;20044;-51
2023/10/17 11:33:11;;;;;;;18.85;12.02;;;;;;;;;;5105045;28;20044;-49
2023/10/17 11:35:38;;;;;;;19.25;11.43;;;;;;;;;;5100863;28;20051;-49
2023/10/17 11:38:07;;;;;;;19.00;12.10;;;;;;;;;;5102579;28;20063;-50
2023/10/17 11:40:46;;;;;;;20.10;12.23;;;;;;;;;;5103221;28;20044;-48
2023/10/17 11:43:19;;;;;;;18.90;11.93;;;;;;;;;;5106860;28;20403;-56
2023/10/17 11:45:46;;;;;;;20.13;12.80;;;;;;;;;;5103014;28;20055;-56
2023/10/17 11:48:30;;;;;;;18.00;12.13;;;;;;;;;;5108353;28;20047;-65
2023/10/17 11:51:13;;;;;;;18.67;11.98;;;;;;;;;;5103746;28;20047;-56
2023/10/17 11:54:07;;;;;;;17.55;11.63;;;;;;;;;;5106748;28;20501;-52
2023/10/17 11:56:34;;;;;;;19.60;12.20;;;;;;;;;;5105464;28;20126;-53
2023/10/17 11:59:04;;;;;;;16.65;11.45;;;;;;;;;;5101746;28;20044;-52
2023/10/17 12:01:32;;;;;;;17.25;12.15;;;;;;;;;;5105284;28;20615;-55
2023/10/17 12:04:00;;;;;;;18.50;11.90;;;;;;;;;;5105360;28;20053;-55
2023/10/17 12:06:27;;;;;;;17.52;12.35;;;;;;;;;;5101989;28;20043;-55
2023/10/17 12:08:55;;;;;;;17.42;12.07;;;;;;;;;;5108939;28;20055;-55
2023/10/17 12:11:24;;;;;;;17.25;11.30;;;;;;;;;;5105209;28;20519;-58
2023/10/17 12:13:51;;;;;;;18.00;12.52;;;;;;;;;;5108286;28;20055;-55
2023/10/17 12:16:23;;;;;;;15.70;10.43;;;;;;;;;;5108684;28;20044;-52
2023/10/17 12:18:51;;;;;;;16.65;10.85;;;;;;;;;;5109464;28;20135;-55
2023/10/17 12:21:17;;;;;;;15.43;10.50;;;;;;;;;;5105401;28;20047;-54
2023/10/17 12:23:45;;;;;;;16.63;11.57;;;;;;;;;;5103766;28;20396;-54
2023/10/17 12:26:14;;;;;;;16.45;10.95;;;;;;;;;;5104794;28;20132;-55
2023/10/17 12:28:42;;;;;;;17.17;11.35;;;;;;;;;;5108080;28;20127;-53
2023/10/17 12:31:09;;;;;;;16.00;10.85;;;;;;;;;;5105240;28;20107;-52
2023/10/17 12:33:37;;;;;;;14.65;10.68;;;;;;;;;;5105727;28;20046;-53
2023/10/17 12:36:05;;;;;;;15.93;11.05;;;;;;;;;;5108116;28;20138;-53
2023/10/17 12:38:34;;;;;;;14.32;10.45;;;;;;;;;;5110197;28;20083;-55
2023/10/17 12:41:02;;;;;;;18.85;10.88;;;;;;;;;;5108327;28;20048;-52
2023/10/17 12:43:29;;;;;;;15.50;10.77;;;;;;;;;;5107698;28;20056;-57
2023/10/17 12:45:55;;;;;;;14.82;9.65;;;;;;;;;;5104879;28;20469;-55
2023/10/17 12:48:22;;;;;;;16.27;11.10;;;;;;;;;;5104513;28;20036;-53
2023/10/17 12:50:51;;;;;;;13.70;10.23;;;;;;;;;;5107788;28;20052;-55
2023/10/17 12:53:17;;;;;;;17.77;10.70;;;;;;;;;;5108821;28;20158;-53
2023/10/17 12:55:45;;;;;;;15.07;10.60;;;;;;;;;;5110314;28;20051;-52
2023/10/17 12:58:12;;;;;;;16.95;11.13;;;;;;;;;;5108034;28;20048;-54
2023/10/17 13:00:39;;;;;;;16.27;9.98;;;;;;;;;;5111530;28;20071;-53
2023/10/17 13:03:06;;;;;;;13.85;9.57;;;;;;;;;;5110595;28;20050;-54
2023/10/17 13:05:33;;;;;;;15.98;9.68;;;;;;;;;;5105192;28;20052;-55
2023/10/17 13:08:04;;;;;;;14.88;9.95;;;;;;;;;;5109359;28;20135;-54
2023/10/17 13:10:31;;;;;;;15.93;10.18;;;;;;;;;;5110158;28;20457;-56
2023/10/17 13:12:59;;;;;;;14.45;9.95;;;;;;;;;;5109922;28;20048;-53
2023/10/17 13:15:26;;;;;;;15.55;10.20;;;;;;;;;;5110661;28;20063;-52
2023/10/17 13:17:55;;;;;;;14.80;9.75;;;;;;;;;;5105735;28;20046;-53
2023/10/17 13:20:28;;;;;;;15.13;10.45;;;;;;;;;;5110019;28;20055;-55
2023/10/17 13:22:55;;;;;;;18.75;10.52;;;;;;;;;;5108256;28;20044;-56
2023/10/17 13:25:23;;;;;;;14.23;10.13;;;;;;;;;;5104430;28;20035;-54
2023/10/17 13:27:50;;;;;;;14.60;9.75;;;;;;;;;;5108836;28;20046;-54
2023/10/17 13:30:17;;;;;;;13.77;9.48;;;;;;;;;;5109688;28;20134;-54
2023/10/17 13:32:44;;;;;;;16.63;9.65;;;;;;;;;;5106654;28;20502;-55
2023/10/17 13:35:11;;;;;;;18.40;10.52;;;;;;;;;;5107285;28;20062;-56
2023/10/17 13:37:51;;;;;;;14.68;10.00;;;;;;;;;;5109238;28;20055;-55
2023/10/17 13:40:19;;;;;;;17.45;11.02;;;;;;;;;;5109081;28;20116;-51
2023/10/17 13:42:47;;;;;;;14.95;10.02;;;;;;;;;;5107369;28;20465;-56
2023/10/17 13:45:14;;;;;;;16.55;9.85;;;;;;;;;;5110366;28;20139;-54
2023/10/17 13:47:41;;;;;;;13.18;9.27;;;;;;;;;;5107448;28;20058;-51
2023/10/17 13:50:13;;;;;;;14.52;10.45;;;;;;;;;;5107914;28;20043;-51
2023/10/17 13:52:41;;;;;;;15.15;9.80;;;;;;;;;;5108119;28;20064;-56
2023/10/17 13:55:11;;;;;;;15.88;9.68;;;;;;;;;;5108709;28;20183;-50
2023/10/17 13:57:42;;;;;;;;;;;;;;;;;;5105350;28;20043;-51
2023/10/17 14:00:18;;;;;;;13.82;9.77;;;;;;;;;;5103985;28;19927;-52
2023/10/17 14:02:47;;;;;;;15.10;10.75;;;;;;;;;;5106004;28;20359;-55
2023/10/17 14:05:14;;;;;;;18.67;9.88;;;;;;;;;;5105541;28;20044;-56
2023/10/17 14:07:41;;;;;;;14.77;9.57;;;;;;;;;;5107128;28;20090;-52
2023/10/17 14:10:10;;;;;;;14.13;10.35;;;;;;;;;;5108656;28;20455;-54
2023/10/17 14:12:39;;;;;;;14.45;9.00;;;;;;;;;;5104535;28;20073;-55
2023/10/17 14:15:08;;;;;;;13.32;10.10;;;;;;;;;;5106863;28;20085;-54
2023/10/17 14:17:37;;;;;;;14.00;9.57;;;;;;;;;;5106276;28;20511;-52
2023/10/17 14:20:15;;;;;;;11.75;8.50;;;;;;;;;;5109925;28;20632;-55
2023/10/17 14:22:57;;;;;;;13.73;9.52;;;;;;;;;;5105127;28;20443;-51
2023/10/17 14:28:08;;;;;;;13.63;9.00;;;;;;;;;;5108144;28;20108;-55
2023/10/17 14:30:39;;;;;;;13.60;9.50;;;;;;;;;;5109121;28;20052;-54
2023/10/17 14:33:09;;;;;;;12.48;8.43;;;;;;;;;;5108511;28;20046;-54
2023/10/17 14:35:36;;;;;;;13.45;8.68;;;;;;;;;;5104643;28;20049;-55
2023/10/17 14:38:03;;;;;;;12.80;8.77;;;;;;;;;;5108007;28;20043;-56
2023/10/17 14:40:30;;;;;;;13.82;9.07;;;;;;;;;;5109003;28;20052;-57
2023/10/17 14:42:57;;;;;;;12.82;7.93;;;;;;;;;;5107439;28;20048;-54
2023/10/17 14:45:25;;;;;;;11.60;8.00;;;;;;;;;;5108454;28;20423;-55
2023/10/17 14:47:51;;;;;;;14.20;9.05;;;;;;;;;;5109445;28;20134;-55
2023/10/17 14:50:20;;;;;;;12.48;8.15;;;;;;;;;;5110274;28;20486;-54
2023/10/17 14:52:46;;;;;;;15.23;8.88;;;;;;;;;;5109367;28;20118;-55
2023/10/17 14:55:15;;;;;;;13.48;8.00;;;;;;;;;;5109872;28;20481;-56
2023/10/17 14:57:42;;;;;;;11.35;7.65;;;;;;;;;;5106544;28;20125;-56
2023/10/17 15:00:12;;;;;;;11.73;7.80;;;;;;;;;;5109277;28;20044;-54
2023/10/17 15:02:40;;;;;;;14.70;8.65;;;;;;;;;;5106681;28;20414;-55
2023/10/17 15:05:08;;;;;;;11.65;7.70;;;;;;;;;;5107283;28;20043;-54
2023/10/17 15:07:36;;;;;;;10.98;7.28;;;;;;;;;;5109125;28;20051;-53
2023/10/17 15:10:03;;;;;;;11.02;7.60;;;;;;;;;;5109456;28;20044;-53
2023/10/17 15:12:30;;;;;;;11.63;7.60;;;;;;;;;;5105162;28;20126;-55
2023/10/17 15:14:57;;;;;;;11.80;8.45;;;;;;;;;;5102237;28;20459;-56
2023/10/17 15:17:25;;;;;;;12.27;7.80;;;;;;;;;;5103524;28;20043;-55
2023/10/17 15:19:52;;;;;;;11.20;8.00;;;;;;;;;;5107738;28;20066;-51
2023/10/17 15:22:18;;;;;;;12.13;7.65;;;;;;;;;;5104868;28;20070;-52
2023/10/17 15:24:52;;;;;;;12.30;7.75;;;;;;;;;;5108805;28;20044;-57
2023/10/17 15:27:19;;;;;;;11.88;7.53;;;;;;;;;;5106824;28;20077;-55
2023/10/17 15:29:45;;;;;;;11.55;7.97;;;;;;;;;;5109058;28;20104;-56
2023/10/17 15:32:12;;;;;;;11.88;7.95;;;;;;;;;;5107173;28;20128;-54
2023/10/17 15:34:39;;;;;;;10.93;7.75;;;;;;;;;;5105930;28;20079;-56
2023/10/17 15:37:06;;;;;;;13.10;8.65;;;;;;;;;;5109231;28;20051;-54
2023/10/17 15:39:34;;;;;;;11.38;7.80;;;;;;;;;;5109125;28;20040;-53
2023/10/17 15:42:03;;;;;;;12.50;8.20;;;;;;;;;;5104929;28;20078;-57
2023/10/17 15:44:36;;;;;;;12.77;8.38;;;;;;;;;;5109280;28;20046;-55
2023/10/17 15:47:03;;;;;;;13.88;8.40;;;;;;;;;;5105699;28;20047;-55
2023/10/17 15:49:29;;;;;;;11.90;8.45;;;;;;;;;;5108617;28;20059;-51
2023/10/17 15:51:57;;;;;;;12.05;7.95;;;;;;;;;;5109076;28;20157;-54
2023/10/17 15:54:23;;;;;;;10.75;7.32;;;;;;;;;;5109256;28;20056;-55
2023/10/17 15:56:50;;;;;;;13.10;8.60;;;;;;;;;;5109119;28;20475;-56
2023/10/17 15:59:18;;;;;;;10.82;7.35;;;;;;;;;;5104686;28;20066;-55
2023/10/17 16:01:45;;;;;;;11.52;8.80;;;;;;;;;;5109232;28;20062;-55
2023/10/17 16:04:13;;;;;;;13.25;8.20;;;;;;;;;;5108447;28;20475;-51
2023/10/17 16:06:40;;;;;;;14.48;8.98;;;;;;;;;;5109026;28;20050;-56